Decoded Metar for LFTH (HYERES in FRANCE) (IATA:TLN) | Meteo·Mobile Aviation Weather
aviador You're here:

LFTH Decoded Metar

HYERES in FRANCE
Report Time2019-02-21 23:30:00
UTC Time2019-02-21 23:42:06
Flight Rules mvfr MVFR
Wind020° at 04 kt
W.Decomp.*RWY 05: 3.4 kt HW 2.1 kt LCW
RWY 31: 1.4 kt HW 3.7 kt RCW
W.Rank020° ranks 17
Current wind is above 020° avg. (3.6)
Visibility5000 m
Phenomena:Mist
Clouds:N/A
Expected CloudBase > 400 ft AGL from Temp-Dew spread
CeilingNone
Temp05°C (ISA -10)
Dew Point04°C (93% RH)
AAT2.2°C
QNH1027 hPa
Density Alt-1,558 ft
Elevation13 ft
Report Wrong Elevation
Raw Report
LFTH 212330Z AUTO 02004KT 340V040 5000 BR NSC 05/04 Q1027
NOSIG=

Extra information for LFTH:More info

Metar Taf Metar & Taf Last 4 Metars F.Rules Stats Wind Profile Meteogram Temp Stats Airport Information Weather charts Add Link Nearby VenuesMetar ALERT Operation Metar Decoded Social comments